Time;durP1;ratioP1;P1;durP2;ratioP2;P2;SDS_P1;SDS_P2;PMS_P1;PMS_P2;Temp;Humidity;BMP_temperature;BMP_pressure;BME280_temperature;BME280_humidity;BME280_pressure;Samples;Min_cycle;Max_cycle;Signal;HPM_P1;HPM_P2
2021/09/24 00:01:45;;;;;;;19.63;15.83;;;15.40;99.90;;;;;;5001239;28;20623;-80
2021/09/24 00:04:12;;;;;;;21.80;16.93;;;15.30;99.90;;;;;;4996205;28;20663;-80
2021/09/24 00:06:39;;;;;;;20.80;15.20;;;15.30;99.90;;;;;;5005636;28;20578;-79
2021/09/24 00:09:06;;;;;;;25.00;17.63;;;15.30;99.90;;;;;;5001662;28;20538;-79
2021/09/24 00:11:32;;;;;;;21.70;18.53;;;15.30;99.90;;;;;;5002527;28;20469;-80
2021/09/24 00:13:57;;;;;;;22.47;17.00;;;15.30;99.90;;;;;;5002302;28;20594;-80
2021/09/24 00:16:23;;;;;;;22.70;17.40;;;15.30;99.90;;;;;;4997413;28;20458;-80
2021/09/24 00:18:48;;;;;;;23.83;17.53;;;15.20;99.90;;;;;;5000738;28;20305;-80
2021/09/24 00:21:14;;;;;;;20.80;16.10;;;15.20;99.90;;;;;;4999972;28;20214;-80
2021/09/24 00:23:40;;;;;;;20.63;17.97;;;15.20;99.90;;;;;;5001683;28;20188;-79
2021/09/24 00:26:05;;;;;;;20.80;16.67;;;15.20;99.90;;;;;;5005054;28;20184;-79
2021/09/24 00:28:31;;;;;;;20.80;16.03;;;15.10;99.90;;;;;;5008282;28;20895;-79
2021/09/24 00:30:57;;;;;;;20.70;16.40;;;15.20;99.90;;;;;;5001323;28;20724;-79
2021/09/24 00:33:27;;;;;;;21.60;16.90;;;15.20;99.90;;;;;;4997907;28;20233;-80
2021/09/24 00:35:55;;;;;;;30.93;18.70;;;15.20;99.90;;;;;;5002515;28;20210;-79
2021/09/24 00:38:22;;;;;;;21.27;18.23;;;15.20;99.90;;;;;;4998283;28;20991;-79
2021/09/24 00:40:48;;;;;;;24.50;19.23;;;15.30;99.90;;;;;;4998246;28;21274;-80
2021/09/24 00:43:14;;;;;;;33.13;21.63;;;15.30;99.90;;;;;;4996677;28;20450;-80
2021/09/24 00:45:40;;;;;;;26.73;21.33;;;15.30;99.90;;;;;;5010852;28;20611;-80
2021/09/24 00:48:06;;;;;;;30.13;20.43;;;15.30;99.90;;;;;;4996967;28;20211;-79
2021/09/24 00:50:31;;;;;;;29.03;20.47;;;15.30;99.90;;;;;;5000033;28;20274;-80
2021/09/24 00:52:58;;;;;;;31.73;22.20;;;15.20;99.90;;;;;;4997187;28;21079;-79
2021/09/24 00:55:26;;;;;;;26.67;23.00;;;15.30;99.90;;;;;;5002712;28;20180;-80
2021/09/24 00:57:51;;;;;;;29.40;23.30;;;15.20;99.90;;;;;;4998419;28;20465;-79
2021/09/24 01:00:18;;;;;;;28.03;22.20;;;15.20;99.90;;;;;;4997737;28;20450;-79
2021/09/24 01:02:44;;;;;;;30.13;21.57;;;15.30;99.90;;;;;;4997922;28;22165;-80
2021/09/24 01:05:11;;;;;;;27.87;21.70;;;15.30;99.90;;;;;;4998017;28;20454;-80
2021/09/24 01:07:38;;;;;;;31.83;22.77;;;15.30;99.90;;;;;;4999136;28;20473;-79
2021/09/24 01:10:04;;;;;;;31.70;23.63;;;15.20;99.90;;;;;;5006345;28;20438;-80
2021/09/24 01:12:31;;;;;;;29.10;21.10;;;15.20;99.90;;;;;;5001196;28;20561;-79
2021/09/24 01:14:59;;;;;;;34.10;22.93;;;15.20;99.90;;;;;;4997643;28;20486;-79
2021/09/24 01:17:24;;;;;;;37.03;23.73;;;15.20;99.90;;;;;;4997778;28;20455;-79
2021/09/24 01:19:50;;;;;;;31.17;22.27;;;15.20;99.90;;;;;;4996650;28;20485;-79
2021/09/24 01:22:16;;;;;;;34.83;26.83;;;15.20;99.90;;;;;;4996880;28;20253;-80
2021/09/24 01:24:42;;;;;;;33.43;24.83;;;15.10;99.90;;;;;;4998374;28;20195;-79
2021/09/24 01:27:07;;;;;;;40.90;26.60;;;15.10;99.90;;;;;;5000657;28;20454;-79
2021/09/24 01:29:33;;;;;;;35.60;27.27;;;15.10;99.90;;;;;;4997379;28;20210;-80
2021/09/24 01:31:59;;;;;;;45.73;30.37;;;15.10;99.90;;;;;;4995997;28;20214;-79
2021/09/24 01:34:25;;;;;;;44.53;30.67;;;15.10;99.90;;;;;;4995996;28;20195;-79
2021/09/24 01:36:50;;;;;;;47.20;31.53;;;15.10;99.90;;;;;;4999378;28;21182;-79
2021/09/24 01:39:16;;;;;;;43.63;30.30;;;15.00;99.90;;;;;;4997278;28;20950;-79
2021/09/24 01:41:45;;;;;;;52.70;32.00;;;15.10;99.90;;;;;;4999900;28;20191;-80
2021/09/24 01:44:11;;;;;;;48.27;35.00;;;15.10;99.90;;;;;;4997123;28;20190;-80
2021/09/24 01:46:42;;;;;;;53.40;32.97;;;15.10;99.90;;;;;;4994617;28;20499;-79
2021/09/24 01:49:08;;;;;;;54.13;31.30;;;15.10;99.90;;;;;;4995051;28;20891;-79
2021/09/24 01:51:36;;;;;;;50.23;32.47;;;15.10;99.90;;;;;;4999537;28;20785;-79
2021/09/24 01:54:02;;;;;;;48.87;34.13;;;15.10;99.90;;;;;;5006283;28;20469;-79
2021/09/24 01:56:28;;;;;;;48.50;31.83;;;15.10;99.90;;;;;;4997197;28;20447;-79
2021/09/24 01:58:53;;;;;;;49.80;33.57;;;15.10;99.90;;;;;;5002762;28;20473;-79
2021/09/24 02:01:19;;;;;;;54.40;32.23;;;15.10;99.90;;;;;;4997184;28;20456;-79
2021/09/24 02:03:44;;;;;;;47.77;31.70;;;15.10;99.90;;;;;;4996170;28;20184;-79
2021/09/24 02:06:10;;;;;;;52.43;31.20;;;15.10;99.90;;;;;;4996116;28;20265;-80
2021/09/24 02:08:36;;;;;;;48.67;30.50;;;15.10;99.90;;;;;;4998914;28;20198;-79
2021/09/24 02:11:01;;;;;;;45.03;29.30;;;15.20;99.90;;;;;;4997857;28;20278;-79
2021/09/24 02:13:27;;;;;;;47.73;30.73;;;15.20;99.90;;;;;;5000482;28;20266;-80
2021/09/24 02:15:53;;;;;;;47.10;30.97;;;15.20;99.90;;;;;;4995051;28;20254;-80
2021/09/24 02:18:20;;;;;;;41.57;27.20;;;15.20;99.90;;;;;;4996237;28;20212;-79
2021/09/24 02:20:46;;;;;;;44.80;28.07;;;15.20;99.90;;;;;;4995365;28;20215;-79
2021/09/24 02:23:12;;;;;;;38.40;28.47;;;15.20;99.90;;;;;;4995616;28;20543;-79
2021/09/24 02:25:38;;;;;;;36.13;27.20;;;15.10;99.90;;;;;;4996860;28;20537;-79
2021/09/24 02:28:04;;;;;;;35.17;25.00;;;15.20;99.90;;;;;;4996647;28;20700;-79
2021/09/24 02:30:29;;;;;;;43.27;27.80;;;15.20;99.90;;;;;;4995459;28;20188;-79
2021/09/24 02:32:55;;;;;;;40.83;26.70;;;15.20;99.90;;;;;;4993358;28;20240;-80
2021/09/24 02:35:20;;;;;;;36.27;25.40;;;15.20;99.90;;;;;;4994513;28;20192;-79
2021/09/24 02:37:46;;;;;;;30.97;22.23;;;15.30;99.90;;;;;;4994860;28;20215;-80
2021/09/24 02:40:12;;;;;;;36.17;22.07;;;15.20;99.90;;;;;;4997652;28;20523;-79
2021/09/24 02:42:38;;;;;;;31.77;22.17;;;15.10;99.90;;;;;;5001084;28;20657;-80
2021/09/24 02:45:04;;;;;;;28.17;20.90;;;15.10;99.90;;;;;;4996362;28;20443;-79
2021/09/24 02:47:30;;;;;;;32.50;22.17;;;15.20;99.90;;;;;;4992630;28;20222;-80
2021/09/24 02:49:56;;;;;;;30.83;21.60;;;15.20;99.90;;;;;;4993260;28;20477;-79
2021/09/24 02:52:21;;;;;;;31.37;21.70;;;15.10;99.90;;;;;;4996695;28;20581;-79
2021/09/24 02:54:47;;;;;;;28.37;21.20;;;15.20;99.90;;;;;;4993232;28;20258;-80
2021/09/24 02:57:13;;;;;;;29.70;20.27;;;15.10;99.90;;;;;;4995474;28;20269;-80
2021/09/24 02:59:38;;;;;;;24.50;19.10;;;15.10;99.90;;;;;;5005976;28;20211;-79
2021/09/24 03:02:04;;;;;;;33.90;22.67;;;15.20;99.90;;;;;;4994868;28;20219;-80
2021/09/24 03:04:30;;;;;;;35.37;22.87;;;15.20;99.90;;;;;;4995113;28;20623;-79
2021/09/24 03:06:55;;;;;;;31.23;25.50;;;15.10;99.90;;;;;;4993227;28;20188;-80
2021/09/24 03:09:21;;;;;;;40.90;28.60;;;15.20;99.90;;;;;;4993106;28;20188;-80
2021/09/24 03:11:48;;;;;;;39.70;29.07;;;15.20;99.90;;;;;;4999529;28;20574;-79
2021/09/24 03:14:13;;;;;;;48.90;33.97;;;15.20;99.90;;;;;;4997731;28;20189;-80
2021/09/24 03:16:41;;;;;;;44.00;33.57;;;15.10;99.90;;;;;;5001382;28;20600;-79
2021/09/24 03:19:08;;;;;;;53.03;36.83;;;15.10;99.90;;;;;;4989659;28;20204;-79
2021/09/24 03:21:33;;;;;;;57.50;39.17;;;15.10;99.90;;;;;;4999728;28;20449;-79
2021/09/24 03:23:59;;;;;;;50.40;36.50;;;15.20;99.90;;;;;;4998414;28;20948;-79
2021/09/24 03:26:25;;;;;;;49.13;36.47;;;15.20;99.90;;;;;;4963213;28;1042373;-79
2021/09/24 03:28:50;;;;;;;55.23;37.07;;;15.20;99.90;;;;;;4999456;28;20191;-79
2021/09/24 03:31:16;;;;;;;55.30;40.50;;;15.20;99.90;;;;;;4999655;28;20207;-79
2021/09/24 03:33:42;;;;;;;55.33;40.67;;;15.20;99.90;;;;;;4996648;28;20226;-80
2021/09/24 03:36:08;;;;;;;58.30;40.30;;;15.10;99.90;;;;;;4999062;28;20234;-79
2021/09/24 03:38:34;;;;;;;62.90;39.27;;;15.20;99.90;;;;;;5005369;28;20215;-79
2021/09/24 03:40:59;;;;;;;56.87;40.70;;;15.30;99.90;;;;;;5006624;28;20576;-79
2021/09/24 03:43:25;;;;;;;70.63;41.30;;;15.20;99.90;;;;;;4998522;28;20282;-80
2021/09/24 03:45:51;;;;;;;63.97;42.53;;;15.20;99.90;;;;;;5000312;28;20283;-80
2021/09/24 03:48:17;;;;;;;62.00;43.30;;;15.30;99.90;;;;;;4997589;28;20457;-80
2021/09/24 03:50:43;;;;;;;61.10;41.73;;;15.30;99.90;;;;;;5000844;28;20978;-79
2021/09/24 03:53:08;;;;;;;68.47;42.70;;;15.20;99.90;;;;;;4998591;28;20605;-80
2021/09/24 03:55:34;;;;;;;57.33;40.60;;;15.20;99.90;;;;;;4998074;28;20458;-79
2021/09/24 03:58:00;;;;;;;72.70;43.67;;;15.30;99.90;;;;;;5005234;28;20218;-79
2021/09/24 04:00:25;;;;;;;59.13;40.07;;;15.30;99.90;;;;;;4998368;28;20180;-79
2021/09/24 04:02:51;;;;;;;57.37;41.10;;;15.20;99.90;;;;;;4998933;28;22171;-79
2021/09/24 04:05:17;;;;;;;58.13;40.17;;;15.20;99.90;;;;;;4994558;28;22710;-79
2021/09/24 04:07:42;;;;;;;58.97;38.73;;;15.20;99.90;;;;;;4998110;28;20793;-79
2021/09/24 04:10:08;;;;;;;56.87;38.10;;;15.20;99.90;;;;;;4998599;28;20184;-79
2021/09/24 04:12:35;;;;;;;62.57;42.10;;;15.10;99.90;;;;;;4996175;28;21504;-79
2021/09/24 04:15:01;;;;;;;63.73;40.40;;;15.10;99.90;;;;;;4996620;28;20510;-79
2021/09/24 04:17:27;;;;;;;58.80;39.13;;;15.10;99.90;;;;;;4997958;28;20470;-79
2021/09/24 04:19:53;;;;;;;57.33;39.53;;;15.20;99.90;;;;;;5000085;28;20467;-79
2021/09/24 04:22:18;;;;;;;61.20;39.77;;;15.20;99.90;;;;;;5003108;28;20180;-79
2021/09/24 04:24:44;;;;;;;62.63;41.50;;;15.20;99.90;;;;;;4998536;28;20577;-79
2021/09/24 04:27:10;;;;;;;75.53;40.37;;;15.20;99.90;;;;;;4997023;28;20261;-79
2021/09/24 04:29:36;;;;;;;59.43;40.40;;;15.20;99.90;;;;;;4996151;28;20245;-79
2021/09/24 04:32:02;;;;;;;59.40;39.40;;;15.10;99.90;;;;;;4996604;28;20293;-79
2021/09/24 04:34:27;;;;;;;54.87;37.33;;;15.10;99.90;;;;;;4998205;28;20191;-79
2021/09/24 04:36:53;;;;;;;56.43;38.50;;;15.20;99.90;;;;;;4998240;28;20491;-79
2021/09/24 04:39:18;;;;;;;57.40;38.17;;;15.20;99.90;;;;;;4999810;28;20689;-79
2021/09/24 04:41:44;;;;;;;55.50;36.73;;;15.20;99.90;;;;;;5000901;28;20202;-79
2021/09/24 04:44:10;;;;;;;60.23;35.37;;;15.30;99.90;;;;;;5001263;28;20705;-79
2021/09/24 04:46:35;;;;;;;56.80;35.87;;;15.30;99.90;;;;;;4996776;28;20898;-79
2021/09/24 04:49:02;;;;;;;54.43;33.33;;;15.20;99.90;;;;;;4988463;28;20209;-79
2021/09/24 04:51:27;;;;;;;52.77;35.53;;;15.20;99.90;;;;;;5001179;28;20461;-79
2021/09/24 04:53:53;;;;;;;56.10;35.43;;;15.20;99.90;;;;;;5002820;28;20485;-79
2021/09/24 04:56:19;;;;;;;57.07;36.23;;;15.20;99.90;;;;;;5002364;28;20894;-79
2021/09/24 04:58:44;;;;;;;55.90;34.30;;;15.20;99.90;;;;;;5002948;28;20203;-79
2021/09/24 05:01:10;;;;;;;50.90;33.90;;;15.30;99.90;;;;;;5000133;28;21016;-79
2021/09/24 05:03:35;;;;;;;56.17;34.70;;;15.30;99.90;;;;;;5002756;28;20180;-79
2021/09/24 05:06:02;;;;;;;44.50;30.07;;;15.20;99.90;;;;;;5006558;28;20215;-79
2021/09/24 05:08:27;;;;;;;55.20;34.30;;;15.20;99.90;;;;;;5005895;28;20192;-79
2021/09/24 05:10:53;;;;;;;55.97;34.03;;;15.20;99.90;;;;;;4997882;28;20469;-79
2021/09/24 05:13:19;;;;;;;54.07;34.03;;;15.20;99.90;;;;;;5004453;28;20192;-79
2021/09/24 05:15:44;;;;;;;54.03;34.37;;;15.30;99.90;;;;;;5005390;28;20199;-79
2021/09/24 05:18:10;;;;;;;55.83;33.50;;;15.30;99.90;;;;;;5005424;28;20199;-79
2021/09/24 05:20:36;;;;;;;58.73;34.30;;;15.20;99.90;;;;;;5001253;28;20200;-79
2021/09/24 05:23:01;;;;;;;53.07;33.00;;;15.30;99.90;;;;;;5000589;28;20243;-79
2021/09/24 05:25:27;;;;;;;53.47;32.27;;;15.20;99.90;;;;;;5003334;28;20874;-79
2021/09/24 05:27:53;;;;;;;56.80;35.90;;;15.30;99.90;;;;;;5000393;28;21160;-79
2021/09/24 05:30:19;;;;;;;51.53;33.93;;;15.30;99.90;;;;;;5003753;28;20286;-79
2021/09/24 05:32:45;;;;;;;61.10;34.77;;;15.20;99.90;;;;;;4995813;28;20896;-79
2021/09/24 05:35:12;;;;;;;48.60;33.10;;;15.20;99.90;;;;;;4995480;28;20447;-79
2021/09/24 05:37:38;;;;;;;51.67;32.90;;;15.10;99.90;;;;;;4993141;28;20187;-79
2021/09/24 05:40:05;;;;;;;63.60;36.37;;;15.10;99.90;;;;;;4991100;28;20958;-79
2021/09/24 05:42:31;;;;;;;54.40;35.80;;;15.10;99.90;;;;;;4992716;28;20454;-79
2021/09/24 05:44:56;;;;;;;53.53;36.13;;;15.20;99.90;;;;;;4993427;28;20453;-79
2021/09/24 05:47:22;;;;;;;64.37;35.50;;;15.20;99.90;;;;;;4994760;28;20357;-80
2021/09/24 05:49:48;;;;;;;62.20;36.20;;;15.20;99.90;;;;;;4996005;28;20234;-79
2021/09/24 05:52:13;;;;;;;57.60;34.93;;;15.20;99.90;;;;;;4994789;28;20283;-79
2021/09/24 05:54:39;;;;;;;68.10;39.70;;;15.20;99.90;;;;;;4993854;28;20188;-79
2021/09/24 05:57:05;;;;;;;58.70;36.27;;;15.20;99.90;;;;;;4995118;28;20187;-79
2021/09/24 05:59:30;;;;;;;62.57;35.33;;;15.30;99.90;;;;;;5000269;28;21009;-79
2021/09/24 06:01:56;;;;;;;59.27;36.47;;;15.30;99.90;;;;;;5005477;28;20795;-80
2021/09/24 06:04:22;;;;;;;61.17;36.53;;;15.20;99.90;;;;;;4999078;28;20224;-79
2021/09/24 06:06:48;;;;;;;62.80;36.27;;;15.20;99.90;;;;;;5000021;28;20180;-79
2021/09/24 06:09:14;;;;;;;58.70;34.13;;;15.20;99.90;;;;;;4993104;28;20195;-79
2021/09/24 06:11:40;;;;;;;61.27;36.30;;;15.20;99.90;;;;;;4992119;28;22375;-79
2021/09/24 06:14:05;;;;;;;63.70;36.60;;;15.20;99.90;;;;;;4989427;28;21639;-79
2021/09/24 06:16:31;;;;;;;63.90;36.70;;;15.20;99.90;;;;;;5006261;28;20215;-79
2021/09/24 06:18:57;;;;;;;61.53;36.57;;;15.20;99.90;;;;;;5018813;28;20223;-79
2021/09/24 06:21:24;;;;;;;65.87;34.33;;;15.30;99.90;;;;;;5011522;28;20568;-79
2021/09/24 06:23:51;;;;;;;67.67;37.10;;;15.20;99.90;;;;;;5010415;28;20863;-79
2021/09/24 06:26:17;;;;;;;64.60;34.03;;;15.20;99.90;;;;;;5004427;28;20458;-79
2021/09/24 06:28:43;;;;;;;64.73;34.50;;;15.20;99.90;;;;;;5005361;28;21719;-79
2021/09/24 06:31:09;;;;;;;62.10;32.77;;;15.20;99.90;;;;;;5002688;28;20446;-79
2021/09/24 06:33:35;;;;;;;66.93;36.33;;;15.20;99.90;;;;;;5004715;28;20254;-79
2021/09/24 06:36:01;;;;;;;59.00;32.87;;;15.20;99.90;;;;;;5005587;28;20207;-79
2021/09/24 06:38:26;;;;;;;63.67;34.27;;;15.20;99.90;;;;;;5004986;28;20222;-79
2021/09/24 06:40:52;;;;;;;65.50;35.00;;;15.20;99.90;;;;;;5013672;28;20477;-79
2021/09/24 06:43:18;;;;;;;68.53;35.53;;;15.10;99.90;;;;;;5014140;28;20213;-79
2021/09/24 06:45:44;;;;;;;64.77;35.20;;;15.10;99.90;;;;;;5001574;28;20187;-79
2021/09/24 06:48:09;;;;;;;65.87;33.77;;;15.10;99.90;;;;;;5001215;28;20211;-79
2021/09/24 06:50:35;;;;;;;57.17;34.20;;;15.00;99.90;;;;;;5001706;28;20447;-79
2021/09/24 06:53:02;;;;;;;65.10;32.87;;;15.10;99.90;;;;;;4997064;28;20780;-80
2021/09/24 06:55:29;;;;;;;52.97;30.37;;;15.10;99.90;;;;;;5004766;28;20980;-80
2021/09/24 06:57:57;;;;;;;54.23;30.00;;;15.00;99.90;;;;;;5003982;28;20949;-79
2021/09/24 07:00:23;;;;;;;56.10;32.87;;;15.10;99.90;;;;;;5010161;28;20514;-79
2021/09/24 07:02:49;;;;;;;52.40;32.27;;;15.10;99.90;;;;;;5005984;28;20567;-79
2021/09/24 07:05:15;;;;;;;50.83;29.40;;;15.00;99.90;;;;;;5002606;28;20475;-77
2021/09/24 07:07:44;;;;;;;61.30;32.67;;;15.00;99.90;;;;;;5004566;28;20188;-79
2021/09/24 07:10:11;;;;;;;56.13;34.00;;;15.00;99.90;;;;;;5004823;28;20195;-79
2021/09/24 07:12:37;;;;;;;56.53;33.00;;;14.90;99.90;;;;;;5009705;28;20450;-79
2021/09/24 07:15:03;;;;;;;52.93;31.47;;;15.00;99.90;;;;;;4996968;28;21049;-80
2021/09/24 07:17:29;;;;;;;54.80;34.80;;;15.00;99.90;;;;;;4996562;28;20683;-79
2021/09/24 07:19:56;;;;;;;60.37;34.37;;;15.00;99.90;;;;;;5001191;28;20478;-79
2021/09/24 07:22:23;;;;;;;68.10;37.47;;;15.00;99.90;;;;;;5007430;28;20641;-79
2021/09/24 07:24:50;;;;;;;61.87;33.50;;;15.00;99.90;;;;;;5007371;28;20983;-78
2021/09/24 07:27:16;;;;;;;63.13;34.30;;;15.00;99.90;;;;;;4999102;28;20846;-80
2021/09/24 07:29:42;;;;;;;61.03;34.67;;;15.00;99.90;;;;;;4996242;28;20466;-79
2021/09/24 07:32:08;;;;;;;57.63;34.33;;;15.00;99.90;;;;;;4992836;28;20981;-79
2021/09/24 07:34:34;;;;;;;55.80;34.60;;;15.10;99.90;;;;;;4992869;28;20279;-79
2021/09/24 07:36:59;;;;;;;51.43;31.87;;;15.10;99.90;;;;;;4993359;28;20204;-79
2021/09/24 07:39:25;;;;;;;54.43;33.70;;;15.10;99.90;;;;;;4996025;28;20671;-79
2021/09/24 07:41:50;;;;;;;55.93;33.13;;;15.10;99.90;;;;;;4999398;28;20202;-79
2021/09/24 07:44:16;;;;;;;62.27;32.60;;;15.10;99.90;;;;;;5004039;28;20199;-79
2021/09/24 07:46:44;;;;;;;50.47;31.67;;;15.10;99.90;;;;;;4993090;28;20950;-78
2021/09/24 07:49:10;;;;;;;48.50;32.90;;;15.10;99.90;;;;;;5002774;28;20202;-79
2021/09/24 07:51:36;;;;;;;51.97;33.77;;;15.20;99.90;;;;;;4994092;28;20503;-78
2021/09/24 07:54:02;;;;;;;54.83;33.60;;;15.10;99.90;;;;;;4997205;28;20200;-77
2021/09/24 07:56:28;;;;;;;49.63;33.40;;;15.10;99.90;;;;;;4999027;28;20194;-78
2021/09/24 07:58:55;;;;;;;54.80;33.50;;;15.10;99.90;;;;;;5002123;28;20469;-78
2021/09/24 08:01:21;;;;;;;50.80;32.50;;;15.10;99.90;;;;;;5000793;28;20434;-78
2021/09/24 08:03:47;;;;;;;48.90;30.67;;;15.00;99.90;;;;;;4990262;28;21322;-77
2021/09/24 08:06:14;;;;;;;49.27;29.70;;;15.00;99.90;;;;;;4990939;28;20180;-78
2021/09/24 08:08:40;;;;;;;48.07;32.23;;;15.00;99.90;;;;;;4990053;28;20188;-78
2021/09/24 08:11:06;;;;;;;42.70;29.60;;;15.00;99.90;;;;;;4991874;28;20477;-77
2021/09/24 08:13:32;;;;;;;43.87;29.73;;;15.10;99.90;;;;;;4996029;28;20186;-79
2021/09/24 08:15:58;;;;;;;37.63;27.40;;;15.10;99.90;;;;;;4999309;28;20231;-80
2021/09/24 08:18:24;;;;;;;38.07;27.10;;;15.00;99.90;;;;;;5000150;28;20222;-79
2021/09/24 08:20:50;;;;;;;37.73;28.33;;;15.10;99.90;;;;;;4996853;28;20518;-79
2021/09/24 08:23:16;;;;;;;38.83;27.27;;;15.00;99.90;;;;;;4999242;28;20533;-79
2021/09/24 08:25:42;;;;;;;34.17;23.77;;;15.00;99.90;;;;;;4994903;28;20245;-79
2021/09/24 08:28:08;;;;;;;40.77;27.30;;;15.00;99.90;;;;;;4994677;28;20211;-79
2021/09/24 08:30:34;;;;;;;35.27;24.87;;;15.00;99.90;;;;;;4993754;28;20214;-79
2021/09/24 08:33:02;;;;;;;38.63;24.87;;;15.00;99.90;;;;;;5001747;28;20482;-79
2021/09/24 08:35:29;;;;;;;39.33;24.20;;;15.00;99.90;;;;;;4997440;28;20454;-79
2021/09/24 08:37:55;;;;;;;37.33;25.53;;;15.00;99.90;;;;;;4997864;28;20440;-79
2021/09/24 08:40:23;;;;;;;38.03;23.87;;;14.90;99.90;;;;;;5001680;28;20487;-79
2021/09/24 08:42:49;;;;;;;41.53;26.00;;;14.90;99.90;;;;;;4999076;28;20443;-79
2021/09/24 08:45:28;;;;;;;34.80;22.90;;;14.90;99.90;;;;;;5000894;28;20454;-79
2021/09/24 08:48:00;;;;;;;32.70;23.63;;;14.90;99.90;;;;;;4995358;28;20481;-79
2021/09/24 08:50:29;;;;;;;35.80;23.90;;;15.00;99.90;;;;;;5008616;28;20458;-79
2021/09/24 08:52:55;;;;;;;33.50;23.40;;;15.00;99.90;;;;;;5003889;28;20446;-79
2021/09/24 08:55:22;;;;;;;36.77;23.23;;;15.00;99.90;;;;;;4993469;28;20448;-78
2021/09/24 08:57:48;;;;;;;33.67;23.30;;;15.00;99.90;;;;;;4990644;28;20453;-77
2021/09/24 09:00:15;;;;;;;41.53;23.40;;;15.00;99.90;;;;;;4995815;28;20944;-79
2021/09/24 09:03:11;;;;;;;35.73;23.23;;;15.10;99.90;;;;;;4990949;28;21749;-79
2021/09/24 09:05:45;;;;;;;34.17;22.83;;;15.10;99.90;;;;;;4990699;28;20479;-78
2021/09/24 09:08:27;;;;;;;38.70;23.10;;;15.10;99.90;;;;;;4994319;28;21318;-78
2021/09/24 09:10:56;;;;;;;37.83;24.30;;;15.20;99.90;;;;;;4990995;28;20485;-78
2021/09/24 09:13:25;;;;;;;37.50;22.77;;;15.10;99.90;;;;;;4990530;28;20458;-78
2021/09/24 09:15:54;;;;;;;31.23;21.57;;;15.10;99.90;;;;;;4992669;28;20523;-79
2021/09/24 09:18:20;;;;;;;35.00;22.50;;;15.20;99.90;;;;;;5001190;28;20481;-78
2021/09/24 09:20:48;;;;;;;37.50;23.03;;;15.20;99.90;;;;;;4999866;28;20457;-78
2021/09/24 09:23:14;;;;;;;36.37;23.37;;;15.20;99.90;;;;;;5000416;28;20188;-78
2021/09/24 09:25:42;;;;;;;39.07;23.50;;;15.20;99.90;;;;;;4991877;28;20469;-78
2021/09/24 09:28:34;;;;;;;33.80;22.50;;;15.20;99.90;;;;;;4992772;28;20551;-78
2021/09/24 09:31:00;;;;;;;33.50;22.00;;;15.20;99.90;;;;;;4993495;28;21252;-79
2021/09/24 09:33:28;;;;;;;32.03;20.93;;;15.40;99.90;;;;;;5003363;28;20470;-78
2021/09/24 09:36:00;;;;;;;33.03;21.03;;;15.40;99.90;;;;;;5004220;28;20512;-78
2021/09/24 09:38:33;;;;;;;40.83;21.97;;;15.40;99.90;;;;;;4997309;28;21181;-78
2021/09/24 09:41:12;;;;;;;40.40;24.20;;;15.40;99.90;;;;;;4997156;28;20481;-78
2021/09/24 09:44:00;;;;;;;35.37;23.10;;;15.40;99.90;;;;;;5003019;28;20441;-78
2021/09/24 09:46:30;;;;;;;38.07;23.47;;;15.50;99.90;;;;;;5006425;28;20488;-78
2021/09/24 09:49:09;;;;;;;37.43;24.00;;;15.40;99.90;;;;;;4999695;28;20492;-79
2021/09/24 09:51:37;;;;;;;41.87;24.83;;;15.40;99.90;;;;;;4994039;28;20458;-78
2021/09/24 09:54:04;;;;;;;41.57;25.50;;;15.40;99.90;;;;;;4996138;28;20509;-78
2021/09/24 09:56:46;;;;;;;38.17;24.50;;;15.50;99.90;;;;;;5003368;28;20934;-78
2021/09/24 09:59:32;;;;;;;48.73;23.77;;;15.50;99.90;;;;;;5006338;28;20477;-78
2021/09/24 10:02:18;;;;;;;40.13;24.53;;;15.60;99.90;;;;;;4999883;28;20949;-79
2021/09/24 10:04:52;;;;;;;42.80;23.80;;;15.50;99.90;;;;;;4998186;28;20462;-79
2021/09/24 10:07:23;;;;;;;40.13;23.37;;;15.50;99.90;;;;;;4992653;28;21349;-78
2021/09/24 10:10:12;;;;;;;35.10;21.97;;;15.50;99.90;;;;;;4994659;28;20576;-78
2021/09/24 10:12:39;;;;;;;36.77;22.77;;;15.50;99.90;;;;;;4994160;28;20451;-79
2021/09/24 10:15:08;;;;;;;40.10;23.20;;;15.50;99.90;;;;;;4995270;28;20458;-78
2021/09/24 10:17:34;;;;;;;32.40;21.60;;;15.60;99.90;;;;;;5002146;28;20621;-78
2021/09/24 10:20:00;;;;;;;32.40;21.87;;;15.60;99.90;;;;;;5002633;28;21007;-78
2021/09/24 10:22:26;;;;;;;30.80;20.13;;;15.70;99.90;;;;;;5003258;28;20191;-78
2021/09/24 10:24:53;;;;;;;32.90;19.83;;;15.70;99.90;;;;;;5003109;28;20233;-78
2021/09/24 10:27:29;;;;;;;36.27;20.93;;;15.70;99.90;;;;;;5000197;28;20523;-78
2021/09/24 10:29:57;;;;;;;29.87;18.20;;;15.70;99.90;;;;;;5004911;28;20821;-78
2021/09/24 10:32:27;;;;;;;26.43;18.50;;;15.70;99.90;;;;;;5001964;28;21195;-78
2021/09/24 10:35:03;;;;;;;36.13;20.30;;;15.80;99.90;;;;;;4998777;28;21016;-78
2021/09/24 10:37:32;;;;;;;26.00;16.63;;;15.80;99.90;;;;;;5001236;28;20479;-78
2021/09/24 10:40:00;;;;;;;27.10;17.40;;;15.80;99.90;;;;;;4995618;28;20474;-78
2021/09/24 10:42:34;;;;;;;33.00;18.03;;;15.80;99.90;;;;;;4994656;28;20803;-78
2021/09/24 10:45:14;;;;;;;27.30;17.77;;;16.00;99.90;;;;;;4996820;28;20449;-78
2021/09/24 10:47:57;;;;;;;26.23;17.10;;;16.20;99.90;;;;;;4999034;28;20474;-78
2021/09/24 10:50:37;;;;;;;21.93;14.90;;;16.50;99.90;;;;;;5003707;28;20469;-78
2021/09/24 10:53:11;;;;;;;22.50;16.00;;;16.50;99.90;;;;;;4996604;28;20447;-78
2021/09/24 10:55:49;;;;;;;22.00;16.30;;;16.60;99.90;;;;;;4994644;28;21650;-78
2021/09/24 10:58:43;;;;;;;20.40;15.63;;;16.70;99.90;;;;;;5003771;28;20813;-78
2021/09/24 11:01:31;;;;;;;19.23;14.80;;;16.70;99.90;;;;;;5004559;28;20447;-78
2021/09/24 11:03:59;;;;;;;21.67;15.40;;;16.80;99.90;;;;;;5004204;28;20470;-78
2021/09/24 11:06:40;;;;;;;21.60;14.40;;;16.80;99.90;;;;;;5001567;28;20855;-79
2021/09/24 11:09:12;;;;;;;25.87;13.30;;;16.80;99.90;;;;;;5003873;28;20477;-78
2021/09/24 11:11:46;;;;;;;15.97;13.23;;;16.80;99.90;;;;;;5002531;28;20442;-78
2021/09/24 11:14:27;;;;;;;20.10;13.97;;;16.90;99.90;;;;;;4997993;28;20450;-79
2021/09/24 11:16:54;;;;;;;17.07;12.73;;;16.90;99.90;;;;;;4992473;28;20516;-78
2021/09/24 11:19:31;;;;;;;19.03;12.10;;;17.00;99.90;;;;;;4994606;28;21099;-79
2021/09/24 11:21:59;;;;;;;19.17;11.57;;;17.10;99.90;;;;;;4999355;28;20464;-78
2021/09/24 11:24:37;;;;;;;16.70;12.20;;;17.20;99.90;;;;;;4996785;28;20483;-78
2021/09/24 11:27:05;;;;;;;14.80;11.53;;;17.10;99.90;;;;;;4995433;28;20799;-79
2021/09/24 11:29:31;;;;;;;20.30;11.87;;;17.10;99.90;;;;;;4996025;28;20478;-79
2021/09/24 11:31:58;;;;;;;19.30;12.70;;;17.10;99.90;;;;;;4997531;28;26024;-79
2021/09/24 11:34:33;;;;;;;19.93;12.47;;;17.10;99.90;;;;;;5000558;28;20994;-79
2021/09/24 11:37:01;;;;;;;17.03;11.20;;;17.10;99.90;;;;;;5001919;28;20478;-79
2021/09/24 11:39:27;;;;;;;13.97;11.20;;;17.00;99.90;;;;;;5001814;28;20477;-79
2021/09/24 11:42:10;;;;;;;15.50;11.23;;;17.00;99.90;;;;;;5003861;28;20982;-78
2021/09/24 11:44:43;;;;;;;18.50;11.00;;;17.00;99.90;;;;;;5005065;28;20434;-78
2021/09/24 11:47:21;;;;;;;16.47;10.70;;;17.00;99.90;;;;;;5002265;28;20438;-78
2021/09/24 11:49:54;;;;;;;16.57;11.40;;;17.00;99.90;;;;;;5000909;28;20558;-77
2021/09/24 11:52:22;;;;;;;16.17;11.60;;;17.00;99.90;;;;;;5004476;28;20977;-78
2021/09/24 11:54:47;;;;;;;17.73;11.07;;;17.00;99.90;;;;;;5000333;28;20450;-78
2021/09/24 11:57:18;;;;;;;16.73;10.93;;;17.00;99.90;;;;;;5003021;28;20458;-78
2021/09/24 11:59:44;;;;;;;19.67;11.47;;;17.10;99.90;;;;;;5004551;28;20217;-78
2021/09/24 12:02:22;;;;;;;17.93;11.40;;;17.10;99.90;;;;;;5005640;28;21017;-78
2021/09/24 12:04:59;;;;;;;18.60;12.67;;;17.10;99.90;;;;;;5001724;28;23905;-78
2021/09/24 12:07:25;;;;;;;19.77;11.80;;;17.10;99.90;;;;;;5003888;28;20534;-78
2021/09/24 12:10:04;;;;;;;15.20;11.50;;;17.20;99.90;;;;;;5001130;28;20458;-78
2021/09/24 12:12:31;;;;;;;19.27;11.43;;;17.20;99.90;;;;;;5003320;28;20570;-78
2021/09/24 12:15:01;;;;;;;18.40;12.03;;;17.10;99.90;;;;;;4997232;28;20455;-78
2021/09/24 12:17:29;;;;;;;20.63;12.60;;;17.20;99.90;;;;;;4998625;28;21195;-78
2021/09/24 12:19:56;;;;;;;22.93;12.60;;;17.20;99.90;;;;;;4998378;28;20479;-78
2021/09/24 12:22:22;;;;;;;15.90;11.57;;;17.20;99.90;;;;;;4997690;28;20461;-78
2021/09/24 12:24:48;;;;;;;18.33;12.40;;;17.40;99.90;;;;;;4992874;28;20456;-78
2021/09/24 12:27:33;;;;;;;14.67;10.70;;;17.50;99.90;;;;;;4983848;28;20450;-78
2021/09/24 12:30:14;;;;;;;19.17;11.53;;;17.60;99.90;;;;;;4997267;28;20461;-78